Time;durP1;ratioP1;P1;durP2;ratioP2;P2;SDS_P1;SDS_P2;PMS_P1;PMS_P2;Temp;Humidity;BMP_temperature;BMP_pressure;BME280_temperature;BME280_humidity;BME280_pressure;Samples;Min_cycle;Max_cycle;Signal;HPM_P1;HPM_P2
2022/09/21 00:00:31;;;;;;;2.10;1.05;;;;;;;9.87;62.54;94062.56;5094098;28;20028;-96
2022/09/21 00:03:04;;;;;;;4.72;1.40;;;;;;;9.67;61.78;94069.97;5098912;28;20040;-96
2022/09/21 00:05:52;;;;;;;2.85;1.52;;;;;;;9.64;62.35;94059.91;5099946;28;20013;-95
2022/09/21 00:09:47;;;;;;;3.38;1.58;;;;;;;9.43;61.79;94054.28;5099796;28;20054;-95
2022/09/21 00:12:17;;;;;;;3.85;1.52;;;;;;;9.47;62.53;94067.75;5252580;22;20100;-96
2022/09/21 00:14:47;;;;;;;5.57;1.80;;;;;;;9.53;62.88;94056.69;5076005;28;20025;-90
2022/09/21 00:23:04;;;;;;;2.40;1.70;;;;;;;9.54;63.58;94057.47;5052397;28;20044;-94
2022/09/21 00:25:42;;;;;;;3.47;1.90;;;;;;;9.51;63.74;94069.50;5055447;28;20037;-95
2022/09/21 00:28:33;;;;;;;4.68;2.38;;;;;;;9.55;63.76;94072.38;5057900;28;20040;-95
2022/09/21 00:31:07;;;;;;;5.05;2.20;;;;;;;9.49;63.72;94058.38;5050628;28;20029;-96
2022/09/21 00:34:12;;;;;;;;;;;;;;;;;;;;;
2022/09/21 00:36:41;;;;;;;4.22;2.50;;;;;;;9.47;63.89;94041.16;5046559;28;20057;-95
2022/09/21 00:39:16;;;;;;;5.38;2.92;;;;;;;9.42;63.91;94053.50;5048118;28;20370;-94
2022/09/21 00:41:42;;;;;;;4.70;2.65;;;;;;;9.41;63.98;94053.78;5047192;28;20021;-94
2022/09/21 00:55:48;;;;;;;;;;;;;;;;;;;;;
2022/09/21 00:58:23;;;;;;;5.53;2.83;;;;;;;9.15;64.86;94049.00;5042525;28;20056;-93
2022/09/21 01:00:51;;;;;;;7.65;3.10;;;;;;;9.15;64.89;94046.34;5065959;28;20032;-93
2022/09/21 01:03:17;;;;;;;9.25;3.55;;;;;;;9.12;64.75;94040.84;5066592;28;20310;-93
2022/09/21 01:05:52;;;;;;;7.07;3.30;;;;;;;8.99;64.46;94047.75;5067288;28;20024;-94
2022/09/21 01:08:22;;;;;;;8.05;3.67;;;;;;;8.96;64.65;94049.16;5067722;28;20053;-94
2022/09/21 01:11:06;;;;;;;10.57;3.30;;;;;;;8.93;65.19;94049.72;5066259;28;20024;-91
2022/09/21 01:13:53;;;;;;;6.38;3.20;;;;;;;8.93;65.80;94052.38;5065313;28;20039;-96
2022/09/21 01:16:28;;;;;;;9.80;3.30;;;;;;;8.92;65.99;94045.50;5066480;28;20020;-93
2022/09/21 01:19:39;;;;;;;7.05;3.38;;;;;;;8.88;66.01;94060.47;5066176;28;20040;-93
2022/09/21 01:22:18;;;;;;;5.32;3.47;;;;;;;8.80;65.99;94055.88;5041371;28;20056;-92
2022/09/21 01:25:02;;;;;;;6.28;3.55;;;;;;;8.71;66.16;94049.66;5066757;28;20017;-93
2022/09/21 01:28:00;;;;;;;4.25;3.00;;;;;;;8.63;66.33;94041.31;5049046;28;20017;-94
2022/09/21 01:30:25;;;;;;;4.65;2.83;;;;;;;8.55;66.60;94046.53;5064507;28;20037;-93
2022/09/21 01:33:16;;;;;;;6.03;4.03;;;;;;;8.53;67.10;94036.19;5065993;28;20080;-95
2022/09/21 01:35:49;;;;;;;9.48;2.80;;;;;;;8.44;67.46;94035.28;5066149;28;20028;-93
2022/09/21 01:38:27;;;;;;;12.05;3.85;;;;;;;8.37;67.46;94043.63;5065783;28;20025;-94
2022/09/21 01:40:59;;;;;;;7.95;3.72;;;;;;;8.32;67.70;94035.72;5066878;28;20028;-94
2022/09/21 01:43:35;;;;;;;6.75;3.55;;;;;;;8.26;67.75;94036.91;5066655;28;20024;-93
2022/09/21 01:46:09;;;;;;;4.97;3.55;;;;;;;8.22;67.91;94033.28;5067972;28;20032;-95
2022/09/21 01:48:39;;;;;;;7.75;3.60;;;;;;;8.15;68.12;94036.31;5050091;28;20029;-95
2022/09/21 01:51:13;;;;;;;8.23;4.18;;;;;;;8.14;68.29;94029.44;5066294;28;20092;-96
2022/09/21 01:53:54;;;;;;;9.88;3.95;;;;;;;8.15;68.59;94040.84;5064738;28;20021;-91
2022/09/21 01:56:26;;;;;;;10.43;3.53;;;;;;;8.13;68.50;94035.81;5064927;28;20051;-94
2022/09/21 01:59:25;;;;;;;5.85;2.95;;;;;;;8.13;68.36;94035.81;5065826;28;20121;-94
2022/09/21 02:01:56;;;;;;;6.70;3.75;;;;;;;8.07;68.69;94033.56;5051183;28;20045;-93
2022/09/21 02:04:25;;;;;;;8.55;3.10;;;;;;;8.06;68.63;94032.78;5065163;28;20325;-94
2022/09/21 02:07:04;;;;;;;9.57;3.05;;;;;;;8.01;68.46;94022.22;5065249;28;20021;-94
2022/09/21 02:09:30;;;;;;;8.63;2.67;;;;;;;8.05;68.72;94025.88;5065120;28;20092;-95
2022/09/21 02:12:09;;;;;;;5.43;2.95;;;;;;;8.06;68.44;94022.16;5064791;28;20043;-95
2022/09/21 02:14:44;;;;;;;7.38;2.80;;;;;;;7.96;68.63;94028.44;5046973;28;20032;-94
2022/09/21 02:17:42;;;;;;;4.30;2.40;;;;;;;8.02;68.58;94031.78;5065158;28;20093;-93
2022/09/21 02:31:16;;;;;;;9.40;3.17;;;;;;;7.63;69.54;94043.53;5398066;22;19306191;-94
2022/09/21 02:34:04;;;;;;;7.63;3.90;;;;;;;7.67;69.38;94051.72;6175392;23;20060;-96
2022/09/21 02:36:50;;;;;;;4.82;3.05;;;;;;;7.63;69.61;94049.66;6176948;23;20288;-94
2022/09/21 02:39:34;;;;;;;6.20;3.00;;;;;;;7.64;69.77;94047.78;6176639;23;20044;-93
2022/09/21 02:42:16;;;;;;;8.13;3.83;;;;;;;7.65;69.83;94049.34;6177044;23;20001;-94
2022/09/21 02:45:09;;;;;;;;;;;;;;;;;;;;;
2022/09/21 02:47:51;;;;;;;6.63;3.67;;;;;;;7.62;69.88;94044.63;6182340;23;20001;-95
2022/09/21 02:50:40;;;;;;;5.15;2.83;;;;;;;7.60;69.72;94046.78;6178865;23;20032;-94
2022/09/21 02:53:27;;;;;;;4.03;2.72;;;;;;;7.59;69.81;94051.31;6181583;23;20008;-95
2022/09/21 02:56:06;;;;;;;6.93;3.20;;;;;;;7.62;69.99;94044.63;6178338;23;20001;-93
2022/09/21 02:58:49;;;;;;;7.13;2.92;;;;;;;7.59;69.56;94040.72;6176081;23;20045;-94
2022/09/21 03:01:32;;;;;;;6.00;3.35;;;;;;;7.61;69.73;94049.16;6175717;23;20005;-94
2022/09/21 03:04:17;;;;;;;;;;;;;;;;;;;;;
2022/09/21 03:06:52;;;;;;;4.45;3.15;;;;;;;7.51;69.88;94048.50;6175808;23;20005;-95
2022/09/21 03:09:30;;;;;;;;;;;;;;;;;;;;;
2022/09/21 03:11:58;;;;;;;6.22;3.25;;;;;;;7.49;70.00;94050.66;6176494;23;20002;-94
2022/09/21 03:14:24;;;;;;;5.32;3.03;;;;;;;7.50;70.00;94052.25;6176608;23;20023;-93
2022/09/21 03:16:56;;;;;;;5.10;2.88;;;;;;;7.48;70.10;94059.72;6175978;23;20001;-94
2022/09/21 03:19:22;;;;;;;7.15;3.20;;;;;;;7.48;70.60;94054.41;6175990;23;20005;-93
2022/09/21 03:21:48;;;;;;;5.05;3.13;;;;;;;7.49;70.34;94053.31;6174626;23;20012;-92
2022/09/21 03:24:44;;;;;;;5.15;2.88;;;;;;;7.43;70.10;94053.41;6175718;23;20002;-93
2022/09/21 03:27:01;;;;;;;9.80;4.30;;;;;;;7.40;70.02;94050.53;6175614;23;20001;-94
2022/09/21 03:29:29;;;;;;;6.85;3.25;;;;;;;7.36;69.77;94052.97;6174463;23;20008;-93
2022/09/21 03:31:54;;;;;;;7.22;4.40;;;;;;;7.36;69.95;94049.53;6169008;23;20019;-93
2022/09/21 03:34:25;;;;;;;9.43;2.67;;;;;;;7.34;69.82;94054.34;6168893;23;20198;-93
2022/09/21 03:36:51;;;;;;;5.22;2.92;;;;;;;7.30;69.90;94054.13;6169161;23;20060;-92
2022/09/21 03:39:19;;;;;;;6.35;3.17;;;;;;;7.23;69.96;94048.41;6169235;23;20052;-92
2022/09/21 03:41:47;;;;;;;7.53;2.85;;;;;;;7.22;70.05;94052.91;6168748;23;20040;-92
2022/09/21 03:44:16;;;;;;;6.93;2.72;;;;;;;7.16;70.01;94050.59;6168751;23;19998;-93
2022/09/21 03:46:42;;;;;;;5.88;2.92;;;;;;;7.14;70.89;94048.22;6168626;23;19993;-93
2022/09/21 03:49:13;;;;;;;5.50;3.00;;;;;;;7.11;70.76;94048.81;6169016;23;19994;-92
2022/09/21 03:51:39;;;;;;;5.90;3.15;;;;;;;6.98;71.01;94065.41;6169832;23;20001;-94
2022/09/21 03:54:05;;;;;;;8.30;2.90;;;;;;;6.92;71.30;94054.13;6169205;23;20060;-93
2022/09/21 03:56:33;;;;;;;10.05;3.08;;;;;;;6.94;71.37;94054.63;6169280;23;20064;-94
2022/09/21 03:59:10;;;;;;;5.18;2.80;;;;;;;6.75;71.60;94056.44;6168833;23;20001;-93
2022/09/21 04:01:41;;;;;;;7.10;3.55;;;;;;;6.61;72.13;94053.69;6170739;23;19997;-93
2022/09/21 04:04:07;;;;;;;7.55;2.83;;;;;;;6.53;72.72;94056.97;6173251;23;20004;-92
2022/09/21 04:09:21;;;;;;;3.33;2.10;;;;;;;6.44;72.85;94054.16;6166977;23;19998;-93
2022/09/21 04:11:58;;;;;;;7.43;2.60;;;;;;;6.45;72.95;94053.06;6179279;23;20019;-92
2022/09/21 04:14:34;;;;;;;5.28;2.40;;;;;;;6.38;73.28;94060.56;6176705;23;20009;-93
2022/09/21 04:17:02;;;;;;;6.88;2.28;;;;;;;6.41;73.76;94054.69;6173269;23;20002;-93
2022/09/21 04:19:27;;;;;;;3.70;2.13;;;;;;;6.46;73.62;94059.94;6168559;23;20006;-93
2022/09/21 04:21:54;;;;;;;3.60;1.83;;;;;;;6.58;73.54;94065.63;6167283;23;20004;-90
2022/09/21 04:24:26;;;;;;;4.05;2.67;;;;;;;6.64;73.92;94058.44;6169041;23;20068;-91
2022/09/21 04:26:51;;;;;;;3.53;2.00;;;;;;;6.67;73.93;94067.66;6168109;23;20004;-91
2022/09/21 04:29:19;;;;;;;3.42;1.75;;;;;;;6.76;73.95;94061.47;6166323;23;19997;-91
2022/09/21 04:32:05;;;;;;;4.82;2.08;;;;;;;6.87;73.73;94062.13;6167695;23;20020;-90
2022/09/21 04:34:33;;;;;;;3.67;1.75;;;;;;;6.96;73.15;94060.44;6167778;23;20345;-91
2022/09/21 04:36:58;;;;;;;3.42;1.83;;;;;;;7.04;72.66;94069.56;6167776;23;20056;-89
2022/09/21 04:39:27;;;;;;;3.80;1.65;;;;;;;7.09;72.56;94074.03;6167745;23;20005;-90
2022/09/21 04:41:55;;;;;;;2.50;1.60;;;;;;;7.19;71.50;94069.38;6167123;23;20001;-90
2022/09/21 04:44:23;;;;;;;2.25;1.13;;;;;;;7.29;71.18;94076.41;6167186;23;20057;-91
2022/09/21 04:46:49;;;;;;;6.40;1.65;;;;;;;7.39;70.61;94063.00;6166190;23;20002;-90
2022/09/21 04:49:15;;;;;;;1.63;1.10;;;;;;;7.52;70.45;94071.31;6167517;23;20229;-95
2022/09/21 04:51:40;;;;;;;1.40;0.80;;;;;;;7.66;70.03;94066.84;6168760;23;19998;-91
2022/09/21 04:54:06;;;;;;;1.42;0.82;;;;;;;7.79;69.57;94068.75;6168061;23;20001;-93
2022/09/21 04:56:31;;;;;;;3.15;1.25;;;;;;;7.94;69.13;94069.63;6168026;23;19997;-93
2022/09/21 04:58:57;;;;;;;2.33;0.80;;;;;;;8.04;68.39;94066.78;6167631;23;20062;-94
2022/09/21 05:01:22;;;;;;;1.50;0.85;;;;;;;8.15;67.67;94062.88;6168285;23;20024;-94
2022/09/21 05:03:48;;;;;;;3.65;1.08;;;;;;;8.28;67.07;94063.19;6167866;23;19997;-95
2022/09/21 05:06:13;;;;;;;2.38;1.02;;;;;;;8.35;66.89;94063.59;6167012;23;20244;-90
2022/09/21 05:11:24;;;;;;;2.15;0.70;;;;;;;8.63;64.98;94067.88;6168810;23;20009;-92
2022/09/21 05:13:53;;;;;;;8.63;2.13;;;;;;;8.78;66.02;94066.78;6168657;23;20005;-91
2022/09/21 05:16:18;;;;;;;15.45;2.15;;;;;;;8.84;66.27;94072.78;6168472;23;20009;-92
2022/09/21 05:18:45;;;;;;;4.50;2.22;;;;;;;8.88;66.13;94073.00;6167132;23;20005;-91
2022/09/21 05:21:15;;;;;;;4.57;1.60;;;;;;;8.91;65.34;94073.16;6166030;23;20171;-91
2022/09/21 05:23:43;;;;;;;4.57;1.63;;;;;;;8.94;64.92;94075.25;6168245;23;20012;-94
2022/09/21 05:26:09;;;;;;;10.13;1.13;;;;;;;9.01;64.81;94072.19;6172263;23;19997;-94
2022/09/21 05:28:35;;;;;;;5.45;1.63;;;;;;;9.05;64.46;94065.19;6174430;23;20014;-94
2022/09/21 05:31:38;;;;;;;5.65;1.58;;;;;;;9.07;64.69;94073.66;6169604;23;20010;-95
2022/09/21 05:34:35;;;;;;;3.50;1.70;;;;;;;9.18;64.29;94068.88;6171664;23;20005;-95
2022/09/21 05:37:36;;;;;;;;;;;;;;;;;;;;;
2022/09/21 05:40:03;;;;;;;6.25;1.38;;;;;;;9.31;64.10;94062.78;6163070;23;20009;-92
2022/09/21 05:42:32;;;;;;;6.32;1.33;;;;;;;9.33;63.49;94063.25;6168729;23;20113;-96
2022/09/21 05:44:58;;;;;;;4.47;1.10;;;;;;;9.39;63.52;94055.97;6168729;23;20009;-93
2022/09/21 05:47:53;;;;;;;9.30;1.88;;;;;;;9.55;63.53;94061.72;6167777;23;20005;-93
2022/09/21 05:50:43;;;;;;;4.72;1.40;;;;;;;9.58;62.87;94075.19;6168398;23;20009;-92
2022/09/21 05:53:32;;;;;;;3.03;1.15;;;;;;;9.51;63.22;94063.41;6167402;23;20040;-94
2022/09/21 05:56:10;;;;;;;2.33;1.38;;;;;;;9.52;63.18;94071.06;6170273;23;20008;-94
2022/09/21 05:59:48;;;;;;;4.28;1.52;;;;;;;9.48;63.54;94077.31;6170181;23;20005;-95
2022/09/21 06:02:35;;;;;;;4.45;1.38;;;;;;;9.52;63.36;94072.97;6168880;23;20008;-93
2022/09/21 06:05:23;;;;;;;2.13;1.00;;;;;;;9.49;61.96;94069.03;6169787;23;20009;-94
2022/09/21 06:07:54;;;;;;;8.23;0.75;;;;;;;9.40;61.07;94066.31;6168723;23;19997;-96
2022/09/21 06:10:33;;;;;;;0.90;0.57;;;;;;;9.47;60.07;94068.53;6173796;23;20000;-96
2022/09/21 06:13:18;;;;;;;1.58;0.63;;;;;;;9.49;60.13;94076.22;6170304;23;20001;-95
2022/09/21 06:15:47;;;;;;;0.68;0.50;;;;;;;9.53;59.76;94071.88;6174106;23;20008;-95
2022/09/21 06:18:17;;;;;;;1.55;0.80;;;;;;;9.59;59.02;94068.78;6170416;23;20002;-95
2022/09/21 06:20:53;;;;;;;2.42;1.00;;;;;;;9.64;59.22;94081.97;6169624;23;20008;-95
2022/09/21 06:23:21;;;;;;;3.13;0.60;;;;;;;9.64;58.81;94071.31;6169255;23;20001;-95
2022/09/21 06:25:51;;;;;;;1.35;0.70;;;;;;;9.75;58.99;94077.22;6168129;23;20057;-94
2022/09/21 06:28:21;;;;;;;2.75;0.82;;;;;;;9.84;59.43;94082.59;6167545;23;20009;-93
2022/09/21 06:30:51;;;;;;;3.28;0.85;;;;;;;9.95;58.82;94075.16;6167330;23;20005;-94
2022/09/21 06:33:20;;;;;;;1.77;0.70;;;;;;;10.03;57.92;94087.72;6171044;23;19997;-95
2022/09/21 06:36:03;;;;;;;3.75;0.88;;;;;;;10.16;57.64;94083.44;6167695;23;20005;-92
2022/09/21 06:38:38;;;;;;;1.63;0.80;;;;;;;10.15;58.04;94087.97;6166521;23;20065;-92
2022/09/21 06:41:06;;;;;;;2.03;0.70;;;;;;;10.21;57.13;94108.06;6165868;23;20006;-94
2022/09/21 06:43:36;;;;;;;2.17;0.63;;;;;;;10.22;57.52;94093.66;6166919;23;20005;-94
2022/09/21 06:46:11;;;;;;;1.48;0.90;;;;;;;10.37;57.37;94099.72;6167739;23;20004;-91
2022/09/21 06:48:57;;;;;;;3.22;1.02;;;;;;;10.50;57.42;94104.19;6166457;23;19997;-93
2022/09/21 06:51:22;;;;;;;1.83;0.98;;;;;;;10.40;57.74;94109.75;6165121;23;20199;-86
2022/09/21 06:53:52;;;;;;;3.72;0.82;;;;;;;10.59;58.26;94113.00;6165291;23;20017;-91
2022/09/21 06:56:23;;;;;;;3.55;1.45;;;;;;;10.72;57.41;94107.88;6167123;23;20013;-91
2022/09/21 06:58:51;;;;;;;3.40;0.77;;;;;;;10.71;57.99;94109.00;6167219;23;20021;-92
2022/09/21 07:01:28;;;;;;;2.85;1.27;;;;;;;10.87;57.86;94106.69;6166806;23;20028;-94
2022/09/21 07:03:54;;;;;;;2.45;1.00;;;;;;;10.89;57.18;94099.16;6167225;23;20002;-93
2022/09/21 07:06:22;;;;;;;2.67;0.90;;;;;;;10.87;57.20;94104.81;6168579;23;20057;-92
2022/09/21 07:08:52;;;;;;;1.98;1.20;;;;;;;10.96;57.00;94099.50;6169088;23;20005;-92
2022/09/21 07:11:18;;;;;;;2.83;1.10;;;;;;;10.93;56.89;94100.94;6168184;23;20056;-92
2022/09/21 07:13:44;;;;;;;2.95;0.98;;;;;;;10.87;57.26;94098.69;6169139;23;20008;-90
2022/09/21 07:16:11;;;;;;;6.78;1.08;;;;;;;10.95;57.99;94098.72;6170031;23;20052;-92
2022/09/21 07:18:39;;;;;;;3.33;1.20;;;;;;;10.87;57.56;94102.16;6169306;23;20019;-92
2022/09/21 07:21:10;;;;;;;2.70;1.10;;;;;;;10.82;58.26;94104.94;6168708;23;20001;-92
2022/09/21 07:23:41;;;;;;;3.30;1.45;;;;;;;10.93;58.58;94108.13;6168314;23;20094;-93
2022/09/21 07:26:33;;;;;;;3.37;1.30;;;;;;;11.00;58.71;94117.25;6167939;23;20016;-93
2022/09/21 07:28:58;;;;;;;2.83;1.13;;;;;;;10.99;58.72;94105.03;6158794;23;20376;-84
2022/09/21 07:31:24;;;;;;;2.53;1.23;;;;;;;11.19;57.33;94122.34;6166903;23;20005;-83
2022/09/21 07:33:57;;;;;;;2.55;0.95;;;;;;;11.04;58.52;94115.53;6167014;23;20287;-90
2022/09/21 07:36:22;;;;;;;2.22;1.13;;;;;;;10.91;59.93;94127.13;6167228;23;20117;-87
2022/09/21 07:38:47;;;;;;;1.75;1.13;;;;;;;10.96;58.75;94121.63;6166813;23;20002;-87
2022/09/21 07:41:13;;;;;;;2.13;1.10;;;;;;;11.05;59.16;94118.97;6166647;23;20096;-88
2022/09/21 07:43:39;;;;;;;3.85;1.40;;;;;;;11.10;59.01;94115.41;6166787;23;20001;-86
2022/09/21 07:46:07;;;;;;;5.72;1.35;;;;;;;11.14;59.66;94113.69;6166184;23;19993;-78
2022/09/21 07:48:32;;;;;;;5.70;1.30;;;;;;;11.09;59.59;94116.50;6165989;23;20070;-78
2022/09/21 07:51:05;;;;;;;7.05;1.25;;;;;;;11.27;60.45;94122.66;6164627;23;20001;-78
2022/09/21 07:53:32;;;;;;;2.30;1.20;;;;;;;11.29;59.65;94115.13;6166257;23;20224;-79
2022/09/21 07:56:08;;;;;;;2.40;1.42;;;;;;;11.22;59.16;94124.38;6166086;23;20001;-79
2022/09/21 08:01:20;;;;;;;3.95;1.20;;;;;;;11.23;58.13;94125.97;6165796;23;20310;-79
2022/09/21 08:03:53;;;;;;;7.53;1.30;;;;;;;11.33;58.79;94130.22;6165861;23;19997;-78
2022/09/21 08:06:19;;;;;;;2.95;1.50;;;;;;;11.33;59.11;94119.53;6166165;23;20044;-78
2022/09/21 08:08:49;;;;;;;1.55;1.00;;;;;;;11.44;57.93;94115.47;6165705;23;20004;-79
2022/09/21 08:11:21;;;;;;;1.30;0.90;;;;;;;11.47;56.93;94116.75;6165650;23;20061;-78
2022/09/21 08:13:54;;;;;;;2.63;1.30;;;;;;;11.23;56.30;94122.50;6165846;23;20199;-77
2022/09/21 08:16:19;;;;;;;2.90;1.00;;;;;;;11.25;56.65;94120.31;6165752;23;20048;-78
2022/09/21 08:18:45;;;;;;;4.57;1.40;;;;;;;11.24;57.10;94116.06;6165812;23;20172;-78
2022/09/21 08:21:11;;;;;;;3.72;1.45;;;;;;;11.35;57.52;94125.34;6165950;23;19999;-78
2022/09/21 08:23:39;;;;;;;3.13;1.30;;;;;;;11.45;56.95;94132.28;6166042;23;20049;-79
2022/09/21 08:26:06;;;;;;;1.75;0.75;;;;;;;11.45;56.79;94127.72;6165310;23;20001;-79
2022/09/21 08:28:32;;;;;;;2.28;1.23;;;;;;;11.47;57.18;94121.28;6165861;23;20001;-79
2022/09/21 08:31:03;;;;;;;4.50;1.27;;;;;;;11.52;56.27;94131.81;6165671;23;20185;-78
2022/09/21 08:33:29;;;;;;;1.88;1.08;;;;;;;11.57;56.00;94108.44;6165938;23;20013;-79
2022/09/21 08:35:57;;;;;;;3.38;1.10;;;;;;;11.58;56.57;94111.88;6165612;23;20001;-84
2022/09/21 08:38:23;;;;;;;1.98;1.13;;;;;;;11.47;56.31;94111.41;6164555;23;20043;-79
2022/09/21 08:40:49;;;;;;;4.85;1.52;;;;;;;11.73;56.69;94105.31;6165429;23;20001;-81
2022/09/21 08:43:28;;;;;;;2.45;1.30;;;;;;;11.85;54.89;94116.94;6165711;23;20032;-78
2022/09/21 08:46:09;;;;;;;4.40;1.33;;;;;;;11.94;55.00;94110.84;6165786;23;20005;-77
2022/09/21 08:48:41;;;;;;;4.30;1.45;;;;;;;11.92;54.37;94105.03;6165515;23;19993;-80
2022/09/21 08:51:17;;;;;;;2.63;0.95;;;;;;;11.98;56.34;94107.22;6165982;23;20009;-81
2022/09/21 08:53:49;;;;;;;2.10;0.90;;;;;;;12.03;54.58;94107.06;6165474;23;19986;-81
2022/09/21 08:56:15;;;;;;;3.55;1.67;;;;;;;12.07;54.77;94093.06;6165372;23;20007;-82
2022/09/21 08:58:42;;;;;;;2.53;1.10;;;;;;;12.16;54.95;94105.31;6165420;23;20021;-80
2022/09/21 09:01:16;;;;;;;2.83;1.13;;;;;;;12.18;53.52;94096.97;6165575;23;20010;-80
2022/09/21 09:04:12;;;;;;;1.95;0.90;;;;;;;12.27;52.57;94089.72;6165531;23;20001;-80
2022/09/21 09:06:47;;;;;;;2.80;1.25;;;;;;;12.33;52.64;94093.03;6165738;23;20002;-79
2022/09/21 09:09:34;;;;;;;2.90;1.60;;;;;;;12.35;53.39;94083.56;6165346;23;20009;-79
2022/09/21 09:12:13;;;;;;;2.55;1.10;;;;;;;12.44;51.42;94080.91;6165673;23;20005;-78
2022/09/21 09:15:20;;;;;;;4.32;1.90;;;;;;;12.37;52.81;94080.59;6165408;23;20044;-77
2022/09/21 09:18:17;;;;;;;4.65;1.40;;;;;;;12.53;52.85;94084.31;6164621;23;20012;-80
2022/09/21 09:20:56;;;;;;;8.80;2.60;;;;;;;12.52;52.18;94082.75;6163706;23;20009;-80
2022/09/21 09:23:25;;;;;;;2.67;1.33;;;;;;;12.53;51.98;94084.31;6163922;23;20005;-86
2022/09/21 09:25:57;;;;;;;3.55;1.08;;;;;;;12.52;52.35;94073.97;6165020;23;20295;-80
2022/09/21 09:28:45;;;;;;;3.05;1.13;;;;;;;12.54;51.94;94069.84;6165098;23;20024;-79
2022/09/21 09:31:32;;;;;;;3.72;0.93;;;;;;;12.54;52.21;94072.53;6164945;23;20251;-83
2022/09/21 09:34:17;;;;;;;2.58;1.45;;;;;;;12.38;51.84;94079.50;6165164;23;20020;-81
2022/09/21 09:36:51;;;;;;;2.08;0.90;;;;;;;12.36;52.07;94084.38;6165283;23;20056;-79
2022/09/21 09:39:16;;;;;;;1.95;1.10;;;;;;;12.31;51.90;94076.50;6165217;23;20113;-79
2022/09/21 09:42:03;;;;;;;3.95;1.00;;;;;;;12.20;52.62;94063.50;6164600;23;19998;-80
2022/09/21 09:44:57;;;;;;;1.73;0.93;;;;;;;12.11;51.71;94065.41;6164637;23;20012;-80
2022/09/21 09:47:43;;;;;;;2.10;1.00;;;;;;;12.03;51.40;94064.31;6163791;23;20287;-80
2022/09/21 09:50:08;;;;;;;1.67;0.80;;;;;;;12.08;51.53;94055.34;6165361;23;20199;-79
2022/09/21 09:52:35;;;;;;;1.77;0.90;;;;;;;12.18;50.88;94052.34;6164771;23;19997;-80
2022/09/21 09:55:42;;;;;;;1.90;0.70;;;;;;;12.43;49.87;94047.25;6164683;23;20009;-80
2022/09/21 09:58:20;;;;;;;1.73;0.85;;;;;;;12.48;49.09;94041.72;6145203;23;20009;-81
2022/09/21 10:00:49;;;;;;;2.53;1.00;;;;;;;12.56;49.62;94056.97;6165165;23;20008;-80
2022/09/21 10:03:23;;;;;;;1.52;1.00;;;;;;;12.51;50.67;94042.97;6164870;23;20019;-81
2022/09/21 10:05:49;;;;;;;5.18;1.05;;;;;;;12.54;51.12;94032.44;6165002;23;20008;-82
2022/09/21 10:08:45;;;;;;;6.15;1.27;;;;;;;12.68;51.72;94020.72;6164771;23;20048;-82
2022/09/21 10:11:13;;;;;;;2.35;0.95;;;;;;;12.82;47.73;94023.94;6164730;23;20005;-82
2022/09/21 10:13:42;;;;;;;3.05;1.08;;;;;;;12.77;45.35;94027.59;6165025;23;20017;-81
2022/09/21 10:16:21;;;;;;;2.20;1.20;;;;;;;12.80;47.21;94034.19;6164712;23;20014;-82
2022/09/21 10:19:00;;;;;;;1.52;0.90;;;;;;;12.76;50.09;94022.56;6164395;23;20057;-83
2022/09/21 10:21:36;;;;;;;3.33;1.00;;;;;;;12.79;48.34;94021.94;6164361;23;20001;-82
2022/09/21 10:24:27;;;;;;;1.52;0.90;;;;;;;12.74;48.03;94036.28;6164487;23;20002;-81
2022/09/21 10:26:56;;;;;;;2.33;0.95;;;;;;;12.71;48.31;94030.78;6164686;23;20002;-82
2022/09/21 10:29:21;;;;;;;5.55;1.20;;;;;;;12.50;47.51;94030.72;6164491;23;20021;-81
2022/09/21 10:31:58;;;;;;;5.30;0.80;;;;;;;12.37;49.14;94030.56;6164396;23;20216;-80
2022/09/21 10:34:26;;;;;;;2.40;0.90;;;;;;;12.16;48.90;94019.03;6164681;23;20008;-79
2022/09/21 10:36:55;;;;;;;4.18;0.85;;;;;;;12.34;49.51;94017.09;6164506;23;20057;-79
2022/09/21 10:39:21;;;;;;;5.68;0.80;;;;;;;12.36;48.87;94014.88;6164822;23;20004;-80
2022/09/21 10:42:15;;;;;;;2.50;0.68;;;;;;;12.54;53.21;94011.03;6165901;23;20001;-82
2022/09/21 10:44:51;;;;;;;1.63;0.70;;;;;;;12.65;46.77;94004.22;6166985;23;20195;-83
2022/09/21 10:47:31;;;;;;;3.53;0.65;;;;;;;12.86;46.36;94006.16;6165242;23;20008;-84
2022/09/21 10:50:25;;;;;;;2.10;0.60;;;;;;;12.96;44.55;93984.38;6167894;23;19994;-86
2022/09/21 10:52:57;;;;;;;1.35;0.70;;;;;;;13.23;44.72;93993.81;6166562;23;20010;-81
2022/09/21 10:55:24;;;;;;;4.72;0.80;;;;;;;13.43;44.71;93999.50;6166755;23;20040;-78
2022/09/21 10:57:51;;;;;;;3.58;0.80;;;;;;;13.53;43.82;93992.97;6164119;23;20001;-84
2022/09/21 11:00:23;;;;;;;2.15;0.82;;;;;;;13.65;43.79;93987.66;6166368;23;20009;-81
2022/09/21 11:02:49;;;;;;;1.75;0.80;;;;;;;13.64;44.55;93991.47;6166838;23;20064;-81
2022/09/21 11:05:22;;;;;;;2.08;0.80;;;;;;;13.62;43.66;93999.84;6166642;23;20004;-82
2022/09/21 11:08:13;;;;;;;5.88;0.93;;;;;;;13.49;43.77;93987.47;6166698;23;20013;-83
2022/09/21 11:11:03;;;;;;;1.70;0.80;;;;;;;13.37;44.87;93990.09;6167744;23;20339;-85
2022/09/21 11:13:37;;;;;;;1.92;0.88;;;;;;;13.24;46.95;93990.00;6167639;23;20065;-80
2022/09/21 11:16:32;;;;;;;2.10;0.80;;;;;;;13.10;46.11;93980.69;6166667;23;20005;-80
2022/09/21 11:19:06;;;;;;;1.23;0.73;;;;;;;13.32;46.73;93991.09;6165013;23;20009;-81
2022/09/21 11:22:01;;;;;;;1.40;0.65;;;;;;;13.55;44.21;93978.13;6166618;23;20176;-82
2022/09/21 11:24:41;;;;;;;1.88;0.70;;;;;;;13.53;43.27;93985.72;6166423;23;20298;-82
2022/09/21 11:27:24;;;;;;;1.27;0.82;;;;;;;13.47;43.26;93980.91;6166832;23;19989;-82
2022/09/21 11:30:06;;;;;;;2.13;1.02;;;;;;;13.37;42.63;93977.53;6166576;23;20020;-80
2022/09/21 11:32:54;;;;;;;2.33;0.82;;;;;;;13.33;43.26;93987.31;6166306;23;20338;-80
2022/09/21 11:35:24;;;;;;;2.13;0.80;;;;;;;13.40;41.89;93981.44;6166610;23;20005;-78
2022/09/21 11:38:11;;;;;;;4.63;0.68;;;;;;;13.49;42.49;93984.81;6166455;23;20005;-79
2022/09/21 11:41:02;;;;;;;1.50;0.70;;;;;;;13.58;41.94;93976.72;6166461;23;20021;-80
2022/09/21 11:43:48;;;;;;;4.82;0.80;;;;;;;13.46;42.27;93984.69;6166463;23;20012;-79
2022/09/21 11:46:29;;;;;;;0.80;0.60;;;;;;;13.24;42.48;93987.34;6166602;23;20013;-79
2022/09/21 11:49:31;;;;;;;4.07;1.13;;;;;;;13.27;42.75;93993.94;6166292;23;20168;-81
2022/09/21 11:52:02;;;;;;;1.30;0.65;;;;;;;13.17;43.13;93987.09;6166134;23;20005;-81
2022/09/21 11:54:33;;;;;;;1.88;0.80;;;;;;;12.99;43.05;93985.63;6166444;23;20001;-81
2022/09/21 11:57:17;;;;;;;2.45;0.82;;;;;;;12.85;44.23;93980.53;6166204;23;20048;-79
2022/09/21 11:59:53;;;;;;;2.35;1.27;;;;;;;12.96;44.97;93988.94;6166148;23;19998;-81
2022/09/21 12:02:40;;;;;;;1.60;0.90;;;;;;;13.02;47.39;93991.09;6166487;23;20173;-80
2022/09/21 12:05:26;;;;;;;6.68;1.10;;;;;;;13.00;48.43;93992.53;6166883;23;20005;-80
2022/09/21 12:08:16;;;;;;;5.63;0.98;;;;;;;12.95;48.74;94004.22;6166671;23;20008;-80
2022/09/21 12:11:00;;;;;;;3.40;0.95;;;;;;;12.77;48.83;94013.44;6166177;23;20307;-82
2022/09/21 12:13:45;;;;;;;5.50;1.30;;;;;;;12.74;49.57;94019.44;6166220;23;20076;-82
2022/09/21 12:16:33;;;;;;;12.32;1.13;;;;;;;12.64;50.15;94016.03;6166867;23;20009;-82
2022/09/21 12:19:04;;;;;;;1.88;1.00;;;;;;;12.68;50.09;94012.69;6166305;23;20001;-82
2022/09/21 12:21:34;;;;;;;11.13;0.88;;;;;;;12.76;50.71;94011.88;6166522;23;20024;-84
2022/09/21 12:24:11;;;;;;;5.00;1.13;;;;;;;12.92;50.27;93999.50;6166740;23;20052;-83
2022/09/21 12:26:45;;;;;;;5.85;0.88;;;;;;;12.96;49.41;94010.34;6166647;23;20260;-82
2022/09/21 12:29:13;;;;;;;7.35;1.00;;;;;;;12.98;49.00;94014.25;6166633;23;20060;-84
2022/09/21 12:31:55;;;;;;;11.88;1.38;;;;;;;13.10;48.94;94010.88;6166313;23;20029;-83
2022/09/21 12:34:26;;;;;;;8.10;1.45;;;;;;;13.15;49.22;94008.03;6166303;23;19998;-84
2022/09/21 12:37:14;;;;;;;19.33;1.27;;;;;;;13.11;50.10;94006.31;6166370;23;20363;-85
2022/09/21 12:40:01;;;;;;;5.03;0.95;;;;;;;13.15;49.80;94007.25;6167016;23;20093;-86
2022/09/21 12:42:39;;;;;;;5.47;1.00;;;;;;;13.18;49.72;94006.59;6166890;23;20052;-87
2022/09/21 12:45:15;;;;;;;6.13;1.10;;;;;;;13.27;49.91;94006.53;6165753;23;19993;-88
2022/09/21 12:48:06;;;;;;;2.20;0.80;;;;;;;13.35;49.91;94011.88;6166018;23;20021;-82
2022/09/21 12:51:16;;;;;;;4.90;0.80;;;;;;;13.30;49.75;94013.94;6166352;23;20023;-86
2022/09/21 12:53:46;;;;;;;10.40;1.40;;;;;;;13.27;50.36;93999.31;6132080;23;20024;-81
2022/09/21 12:56:31;;;;;;;4.57;1.13;;;;;;;13.22;50.34;94002.94;6165787;23;20295;-81
2022/09/21 12:59:34;;;;;;;5.53;1.00;;;;;;;13.35;50.01;94000.34;6166098;23;20231;-81
2022/09/21 13:02:03;;;;;;;6.07;1.33;;;;;;;13.40;48.31;94003.63;6165618;23;20008;-81